Terminal Aerodrome Forecast
Issued by NWS

Home | Current Version | Previous Version | Text Only | Print | Product List | Glossary On
Versions: 1 2 3 4 5 6 7 8 9 10 11 12 13 14
000
FTUS44 KLIX 030532
TAFMSY
TAF
KMSY 030532Z 0306/0406 19006KT P6SM FEW020 SCT250
     FM031400 21010KT P6SM SCT035
     FM040100 20007KT P6SM BKN250=

USA.gov is the U.S. government's official web portal to all federal, state and local government web resources and services.